sensor_id;sensor_type;location;lat;lon;timestamp;pressure;altitude;pressure_sealevel;temperature;humidity
70256;BME280;57669;52.624;-1.688;2022-11-02T00:00:13;100258.42;;;6.67;66.00
70256;BME280;57669;52.624;-1.688;2022-11-02T00:02:37;100269.02;;;6.41;65.66
70256;BME280;57669;52.624;-1.688;2022-11-02T00:05:03;100277.61;;;5.64;68.64
70256;BME280;57669;52.624;-1.688;2022-11-02T00:07:28;100271.91;;;6.13;67.35
70256;BME280;57669;52.624;-1.688;2022-11-02T00:09:54;100273.36;;;6.68;66.20
70256;BME280;57669;52.624;-1.688;2022-11-02T00:12:19;100281.77;;;5.99;67.00
70256;BME280;57669;52.624;-1.688;2022-11-02T00:14:45;100290.88;;;6.33;66.94
70256;BME280;57669;52.624;-1.688;2022-11-02T00:17:11;100298.73;;;6.25;66.93
70256;BME280;57669;52.624;-1.688;2022-11-02T00:19:37;100303.08;;;6.42;66.62
70256;BME280;57669;52.624;-1.688;2022-11-02T00:22:03;100306.71;;;5.84;67.36
70256;BME280;57669;52.624;-1.688;2022-11-02T00:24:29;100316.24;;;6.57;66.05
70256;BME280;57669;52.624;-1.688;2022-11-02T00:26:54;100322.14;;;6.39;66.27
70256;BME280;57669;52.624;-1.688;2022-11-02T00:29:20;100334.58;;;6.01;66.96
70256;BME280;57669;52.624;-1.688;2022-11-02T00:31:45;100333.19;;;6.33;65.80
70256;BME280;57669;52.624;-1.688;2022-11-02T00:34:11;100339.58;;;6.47;65.31
70256;BME280;57669;52.624;-1.688;2022-11-02T00:36:36;100356.93;;;6.26;66.26
70256;BME280;57669;52.624;-1.688;2022-11-02T00:39:02;100359.09;;;6.26;65.60
70256;BME280;57669;52.624;-1.688;2022-11-02T00:41:28;100367.98;;;6.16;66.41
70256;BME280;57669;52.624;-1.688;2022-11-02T00:43:53;100370.70;;;6.07;66.45
70256;BME280;57669;52.624;-1.688;2022-11-02T00:46:19;100367.40;;;6.70;64.76
70256;BME280;57669;52.624;-1.688;2022-11-02T00:48:45;100372.68;;;6.04;64.61
70256;BME280;57669;52.624;-1.688;2022-11-02T00:51:11;100380.04;;;6.51;63.86
70256;BME280;57669;52.624;-1.688;2022-11-02T00:53:37;100390.97;;;6.52;64.18
70256;BME280;57669;52.624;-1.688;2022-11-02T00:56:03;100400.15;;;6.68;63.26
70256;BME280;57669;52.624;-1.688;2022-11-02T00:58:28;100403.92;;;6.78;62.92
70256;BME280;57669;52.624;-1.688;2022-11-02T01:00:54;100405.76;;;6.84;62.47
70256;BME280;57669;52.624;-1.688;2022-11-02T01:03:20;100414.68;;;6.92;62.29
70256;BME280;57669;52.624;-1.688;2022-11-02T01:05:46;100418.80;;;7.18;61.36
70256;BME280;57669;52.624;-1.688;2022-11-02T01:08:11;100428.16;;;6.81;61.97
70256;BME280;57669;52.624;-1.688;2022-11-02T01:10:38;100436.17;;;6.78;62.23
70256;BME280;57669;52.624;-1.688;2022-11-02T01:13:03;100441.25;;;6.60;61.57
70256;BME280;57669;52.624;-1.688;2022-11-02T01:15:29;100448.67;;;6.74;61.17
70256;BME280;57669;52.624;-1.688;2022-11-02T01:17:55;100458.38;;;6.78;61.35
70256;BME280;57669;52.624;-1.688;2022-11-02T01:20:20;100455.32;;;7.02;60.92
70256;BME280;57669;52.624;-1.688;2022-11-02T01:22:46;100457.09;;;6.47;61.95
70256;BME280;57669;52.624;-1.688;2022-11-02T01:25:12;100465.56;;;7.35;60.67
70256;BME280;57669;52.624;-1.688;2022-11-02T01:27:38;100474.03;;;6.49;61.09
70256;BME280;57669;52.624;-1.688;2022-11-02T01:30:05;100483.24;;;7.27;60.21
70256;BME280;57669;52.624;-1.688;2022-11-02T01:32:29;100486.47;;;6.71;61.17
70256;BME280;57669;52.624;-1.688;2022-11-02T01:34:55;100492.51;;;6.69;60.63
70256;BME280;57669;52.624;-1.688;2022-11-02T01:37:21;100497.75;;;6.68;60.37
70256;BME280;57669;52.624;-1.688;2022-11-02T01:39:46;100499.81;;;6.85;59.87
70256;BME280;57669;52.624;-1.688;2022-11-02T01:42:17;100510.90;;;6.85;59.69
70256;BME280;57669;52.624;-1.688;2022-11-02T01:44:38;100513.93;;;6.92;59.53
70256;BME280;57669;52.624;-1.688;2022-11-02T01:47:07;100512.00;;;7.06;60.24
70256;BME280;57669;52.624;-1.688;2022-11-02T01:49:32;100516.20;;;7.22;59.04
70256;BME280;57669;52.624;-1.688;2022-11-02T01:51:58;100528.83;;;6.72;60.32
70256;BME280;57669;52.624;-1.688;2022-11-02T01:54:23;100523.65;;;7.13;59.03
70256;BME280;57669;52.624;-1.688;2022-11-02T01:56:52;100528.97;;;6.48;60.78
70256;BME280;57669;52.624;-1.688;2022-11-02T01:59:17;100529.91;;;6.66;59.73
70256;BME280;57669;52.624;-1.688;2022-11-02T02:01:38;100536.63;;;6.57;60.91
70256;BME280;57669;52.624;-1.688;2022-11-02T02:04:04;100543.77;;;6.54;60.93
70256;BME280;57669;52.624;-1.688;2022-11-02T02:06:30;100550.66;;;6.45;61.64
70256;BME280;57669;52.624;-1.688;2022-11-02T02:08:57;100553.59;;;6.26;61.60
70256;BME280;57669;52.624;-1.688;2022-11-02T02:11:25;100558.72;;;6.37;61.37
70256;BME280;57669;52.624;-1.688;2022-11-02T02:13:47;100562.41;;;6.45;61.85
70256;BME280;57669;52.624;-1.688;2022-11-02T02:16:17;100568.00;;;6.23;61.78
70256;BME280;57669;52.624;-1.688;2022-11-02T02:18:42;100566.95;;;5.96;62.20
70256;BME280;57669;52.624;-1.688;2022-11-02T02:21:15;100566.97;;;6.41;61.09
70256;BME280;57669;52.624;-1.688;2022-11-02T02:23:42;100574.28;;;6.62;60.60
70256;BME280;57669;52.624;-1.688;2022-11-02T02:28:28;100583.01;;;6.32;61.21
70256;BME280;57669;52.624;-1.688;2022-11-02T02:30:52;100585.11;;;6.84;59.78
70256;BME280;57669;52.624;-1.688;2022-11-02T02:33:19;100582.26;;;6.68;60.07
70256;BME280;57669;52.624;-1.688;2022-11-02T02:35:41;100582.80;;;6.75;59.70
70256;BME280;57669;52.624;-1.688;2022-11-02T02:38:09;100572.93;;;6.00;61.62
70256;BME280;57669;52.624;-1.688;2022-11-02T02:40:34;100574.95;;;6.34;60.88
70256;BME280;57669;52.624;-1.688;2022-11-02T02:42:59;100576.77;;;6.36;60.35
70256;BME280;57669;52.624;-1.688;2022-11-02T02:47:53;100580.27;;;6.92;59.57
70256;BME280;57669;52.624;-1.688;2022-11-02T02:50:16;100588.54;;;6.63;60.53
70256;BME280;57669;52.624;-1.688;2022-11-02T02:52:40;100593.67;;;6.16;61.11
70256;BME280;57669;52.624;-1.688;2022-11-02T02:55:07;100586.69;;;6.13;61.89
70256;BME280;57669;52.624;-1.688;2022-11-02T02:57:38;100594.95;;;5.75;62.42
70256;BME280;57669;52.624;-1.688;2022-11-02T02:59:56;100604.80;;;6.31;61.57
70256;BME280;57669;52.624;-1.688;2022-11-02T03:02:27;100611.59;;;6.34;61.08
70256;BME280;57669;52.624;-1.688;2022-11-02T03:04:48;100608.53;;;6.43;60.75
70256;BME280;57669;52.624;-1.688;2022-11-02T03:07:17;100614.37;;;5.78;62.57
70256;BME280;57669;52.624;-1.688;2022-11-02T03:09:43;100615.74;;;5.92;61.87
70256;BME280;57669;52.624;-1.688;2022-11-02T03:12:15;100625.70;;;6.34;60.70
70256;BME280;57669;52.624;-1.688;2022-11-02T03:14:37;100625.20;;;6.65;60.37
70256;BME280;57669;52.624;-1.688;2022-11-02T03:17:07;100616.45;;;6.12;60.90
70256;BME280;57669;52.624;-1.688;2022-11-02T03:19:29;100612.02;;;6.05;60.95
70256;BME280;57669;52.624;-1.688;2022-11-02T03:21:54;100621.50;;;6.47;60.00
70256;BME280;57669;52.624;-1.688;2022-11-02T03:24:17;100623.08;;;6.28;60.33
70256;BME280;57669;52.624;-1.688;2022-11-02T03:26:45;100637.04;;;6.75;59.45
70256;BME280;57669;52.624;-1.688;2022-11-02T03:29:09;100652.70;;;6.87;59.08
70256;BME280;57669;52.624;-1.688;2022-11-02T03:31:35;100651.61;;;5.95;61.17
70256;BME280;57669;52.624;-1.688;2022-11-02T03:34:02;100641.27;;;5.61;61.81
70256;BME280;57669;52.624;-1.688;2022-11-02T03:36:30;100643.20;;;6.00;61.56
70256;BME280;57669;52.624;-1.688;2022-11-02T03:38:52;100648.28;;;5.67;62.11
70256;BME280;57669;52.624;-1.688;2022-11-02T03:41:16;100643.58;;;6.44;60.66
70256;BME280;57669;52.624;-1.688;2022-11-02T03:43:43;100649.57;;;6.50;60.05
70256;BME280;57669;52.624;-1.688;2022-11-02T03:46:07;100655.34;;;6.10;60.79
70256;BME280;57669;52.624;-1.688;2022-11-02T03:48:36;100656.31;;;6.07;61.21
70256;BME280;57669;52.624;-1.688;2022-11-02T03:51:01;100656.23;;;6.23;60.60
70256;BME280;57669;52.624;-1.688;2022-11-02T03:53:27;100664.96;;;6.10;61.02
70256;BME280;57669;52.624;-1.688;2022-11-02T03:55:53;100659.41;;;5.86;61.24
70256;BME280;57669;52.624;-1.688;2022-11-02T03:58:15;100661.69;;;6.84;60.30
70256;BME280;57669;52.624;-1.688;2022-11-02T04:00:45;100666.95;;;6.73;59.69
70256;BME280;57669;52.624;-1.688;2022-11-02T04:03:06;100668.51;;;6.56;59.45
70256;BME280;57669;52.624;-1.688;2022-11-02T04:05:33;100665.09;;;6.13;60.33
70256;BME280;57669;52.624;-1.688;2022-11-02T04:07:57;100669.17;;;6.16;59.98
70256;BME280;57669;52.624;-1.688;2022-11-02T04:10:23;100681.02;;;6.34;59.30
70256;BME280;57669;52.624;-1.688;2022-11-02T04:12:49;100695.08;;;6.42;59.10
70256;BME280;57669;52.624;-1.688;2022-11-02T04:15:14;100695.76;;;6.07;59.17
70256;BME280;57669;52.624;-1.688;2022-11-02T04:17:39;100695.20;;;5.90;59.45
70256;BME280;57669;52.624;-1.688;2022-11-02T04:20:06;100697.87;;;6.20;59.78
70256;BME280;57669;52.624;-1.688;2022-11-02T04:22:31;100704.26;;;6.46;58.70
70256;BME280;57669;52.624;-1.688;2022-11-02T04:24:57;100707.91;;;6.03;59.07
70256;BME280;57669;52.624;-1.688;2022-11-02T04:27:23;100707.87;;;5.56;61.05
70256;BME280;57669;52.624;-1.688;2022-11-02T04:29:48;100704.55;;;6.44;58.32
70256;BME280;57669;52.624;-1.688;2022-11-02T04:32:14;100713.04;;;6.29;58.53
70256;BME280;57669;52.624;-1.688;2022-11-02T04:34:40;100717.13;;;6.29;58.42
70256;BME280;57669;52.624;-1.688;2022-11-02T04:37:06;100713.21;;;6.45;57.54
70256;BME280;57669;52.624;-1.688;2022-11-02T04:39:31;100720.72;;;6.29;57.96
70256;BME280;57669;52.624;-1.688;2022-11-02T04:42:00;100721.65;;;6.33;57.81
70256;BME280;57669;52.624;-1.688;2022-11-02T04:44:23;100724.45;;;6.31;57.95
70256;BME280;57669;52.624;-1.688;2022-11-02T04:46:50;100725.31;;;6.00;58.30
70256;BME280;57669;52.624;-1.688;2022-11-02T04:49:15;100723.62;;;6.28;58.28
70256;BME280;57669;52.624;-1.688;2022-11-02T04:51:40;100720.96;;;5.84;58.90
70256;BME280;57669;52.624;-1.688;2022-11-02T04:54:06;100724.47;;;6.03;58.53
70256;BME280;57669;52.624;-1.688;2022-11-02T04:56:32;100728.13;;;6.51;57.78
70256;BME280;57669;52.624;-1.688;2022-11-02T04:58:59;100739.86;;;5.84;59.19
70256;BME280;57669;52.624;-1.688;2022-11-02T05:01:25;100747.73;;;6.10;58.68
70256;BME280;57669;52.624;-1.688;2022-11-02T05:03:51;100753.88;;;5.61;59.45
70256;BME280;57669;52.624;-1.688;2022-11-02T05:06:16;100754.14;;;6.19;59.19
70256;BME280;57669;52.624;-1.688;2022-11-02T05:08:41;100752.08;;;5.88;58.73
70256;BME280;57669;52.624;-1.688;2022-11-02T05:11:07;100750.82;;;5.15;60.92
70256;BME280;57669;52.624;-1.688;2022-11-02T05:13:32;100753.92;;;5.10;60.95
70256;BME280;57669;52.624;-1.688;2022-11-02T05:15:58;100752.39;;;4.86;62.78
70256;BME280;57669;52.624;-1.688;2022-11-02T05:18:23;100754.21;;;5.02;62.63
70256;BME280;57669;52.624;-1.688;2022-11-02T05:20:49;100749.25;;;5.04;62.63
70256;BME280;57669;52.624;-1.688;2022-11-02T05:23:14;100757.18;;;4.57;63.58
70256;BME280;57669;52.624;-1.688;2022-11-02T05:25:40;100750.83;;;4.98;62.80
70256;BME280;57669;52.624;-1.688;2022-11-02T05:28:05;100747.04;;;4.47;64.54
70256;BME280;57669;52.624;-1.688;2022-11-02T05:30:31;100748.72;;;4.62;63.15
70256;BME280;57669;52.624;-1.688;2022-11-02T05:32:56;100753.26;;;5.39;61.28
70256;BME280;57669;52.624;-1.688;2022-11-02T05:35:22;100753.10;;;5.02;62.47
70256;BME280;57669;52.624;-1.688;2022-11-02T05:37:48;100748.34;;;4.84;62.20
70256;BME280;57669;52.624;-1.688;2022-11-02T05:40:13;100746.07;;;4.74;63.20
70256;BME280;57669;52.624;-1.688;2022-11-02T05:42:38;100746.26;;;3.94;64.70
70256;BME280;57669;52.624;-1.688;2022-11-02T05:45:05;100740.15;;;5.12;62.22
70256;BME280;57669;52.624;-1.688;2022-11-02T05:47:29;100745.44;;;4.79;61.65
70256;BME280;57669;52.624;-1.688;2022-11-02T05:49:55;100747.33;;;5.06;61.06
70256;BME280;57669;52.624;-1.688;2022-11-02T05:52:20;100746.50;;;4.68;62.99
70256;BME280;57669;52.624;-1.688;2022-11-02T05:54:46;100737.16;;;4.20;64.56
70256;BME280;57669;52.624;-1.688;2022-11-02T05:57:11;100724.07;;;4.32;63.93
70256;BME280;57669;52.624;-1.688;2022-11-02T05:59:37;100724.95;;;4.85;62.70
70256;BME280;57669;52.624;-1.688;2022-11-02T06:02:02;100714.99;;;4.73;62.35
70256;BME280;57669;52.624;-1.688;2022-11-02T06:04:28;100713.26;;;5.00;61.01
70256;BME280;57669;52.624;-1.688;2022-11-02T06:06:53;100716.22;;;4.61;61.79
70256;BME280;57669;52.624;-1.688;2022-11-02T06:09:19;100716.47;;;4.44;62.95
70256;BME280;57669;52.624;-1.688;2022-11-02T06:11:44;100712.52;;;4.99;62.32
70256;BME280;57669;52.624;-1.688;2022-11-02T06:14:10;100711.06;;;4.68;63.19
70256;BME280;57669;52.624;-1.688;2022-11-02T06:16:35;100713.55;;;4.51;63.26
70256;BME280;57669;52.624;-1.688;2022-11-02T06:19:01;100710.79;;;4.40;64.73
70256;BME280;57669;52.624;-1.688;2022-11-02T06:21:26;100713.56;;;4.14;64.89
70256;BME280;57669;52.624;-1.688;2022-11-02T06:23:52;100713.18;;;4.09;65.74
70256;BME280;57669;52.624;-1.688;2022-11-02T06:26:17;100711.64;;;4.18;65.88
70256;BME280;57669;52.624;-1.688;2022-11-02T06:28:43;100721.59;;;3.82;67.16
70256;BME280;57669;52.624;-1.688;2022-11-02T06:31:08;100715.14;;;4.23;65.67
70256;BME280;57669;52.624;-1.688;2022-11-02T06:33:34;100714.97;;;4.48;64.57
70256;BME280;57669;52.624;-1.688;2022-11-02T06:35:59;100707.06;;;4.82;62.57
70256;BME280;57669;52.624;-1.688;2022-11-02T06:38:24;100717.80;;;4.89;63.19
70256;BME280;57669;52.624;-1.688;2022-11-02T06:40:53;100715.07;;;4.03;65.20
70256;BME280;57669;52.624;-1.688;2022-11-02T06:43:15;100721.51;;;4.37;64.16
70256;BME280;57669;52.624;-1.688;2022-11-02T06:45:41;100717.50;;;4.81;63.22
70256;BME280;57669;52.624;-1.688;2022-11-02T06:48:07;100722.60;;;4.10;65.69
70256;BME280;57669;52.624;-1.688;2022-11-02T06:50:32;100725.43;;;5.12;63.30
70256;BME280;57669;52.624;-1.688;2022-11-02T06:52:57;100721.71;;;4.94;63.76
70256;BME280;57669;52.624;-1.688;2022-11-02T06:55:22;100717.16;;;4.72;64.23
70256;BME280;57669;52.624;-1.688;2022-11-02T06:57:48;100714.28;;;4.82;64.38
70256;BME280;57669;52.624;-1.688;2022-11-02T07:00:14;100717.68;;;4.56;64.46
70256;BME280;57669;52.624;-1.688;2022-11-02T07:02:39;100724.04;;;4.76;64.01
70256;BME280;57669;52.624;-1.688;2022-11-02T07:05:06;100722.24;;;4.67;63.76
70256;BME280;57669;52.624;-1.688;2022-11-02T07:07:30;100713.55;;;4.59;65.01
70256;BME280;57669;52.624;-1.688;2022-11-02T07:09:55;100720.30;;;5.02;64.98
70256;BME280;57669;52.624;-1.688;2022-11-02T07:12:21;100714.65;;;5.21;65.53
70256;BME280;57669;52.624;-1.688;2022-11-02T07:14:46;100713.11;;;5.34;65.93
70256;BME280;57669;52.624;-1.688;2022-11-02T07:17:12;100715.98;;;4.50;67.50
70256;BME280;57669;52.624;-1.688;2022-11-02T07:19:37;100713.96;;;4.67;66.74
70256;BME280;57669;52.624;-1.688;2022-11-02T07:22:04;100721.81;;;5.28;65.43
70256;BME280;57669;52.624;-1.688;2022-11-02T07:24:28;100728.25;;;5.30;65.21
70256;BME280;57669;52.624;-1.688;2022-11-02T07:26:54;100733.45;;;5.60;64.79
70256;BME280;57669;52.624;-1.688;2022-11-02T07:29:19;100734.68;;;5.32;65.67
70256;BME280;57669;52.624;-1.688;2022-11-02T07:31:45;100730.01;;;5.47;65.64
70256;BME280;57669;52.624;-1.688;2022-11-02T07:34:11;100731.70;;;6.13;64.73
70256;BME280;57669;52.624;-1.688;2022-11-02T07:36:36;100741.59;;;5.81;65.37
70256;BME280;57669;52.624;-1.688;2022-11-02T07:39:02;100750.47;;;5.15;68.32
70256;BME280;57669;52.624;-1.688;2022-11-02T07:41:27;100748.19;;;5.92;66.16
70256;BME280;57669;52.624;-1.688;2022-11-02T07:43:52;100754.37;;;5.82;67.48
70256;BME280;57669;52.624;-1.688;2022-11-02T07:46:18;100756.63;;;5.62;66.67
70256;BME280;57669;52.624;-1.688;2022-11-02T07:48:45;100753.12;;;5.47;67.58
70256;BME280;57669;52.624;-1.688;2022-11-02T07:51:09;100755.00;;;5.41;68.43
70256;BME280;57669;52.624;-1.688;2022-11-02T07:53:35;100755.98;;;5.66;68.68
70256;BME280;57669;52.624;-1.688;2022-11-02T07:56:01;100755.58;;;5.25;69.18
70256;BME280;57669;52.624;-1.688;2022-11-02T07:58:26;100759.16;;;5.58;67.98
70256;BME280;57669;52.624;-1.688;2022-11-02T08:00:51;100765.09;;;5.11;69.43
70256;BME280;57669;52.624;-1.688;2022-11-02T08:03:17;100771.85;;;6.22;67.04
70256;BME280;57669;52.624;-1.688;2022-11-02T08:05:42;100765.40;;;6.68;65.27
70256;BME280;57669;52.624;-1.688;2022-11-02T08:08:11;100763.17;;;7.40;63.87
70256;BME280;57669;52.624;-1.688;2022-11-02T08:10:35;100768.59;;;6.58;65.35
70256;BME280;57669;52.624;-1.688;2022-11-02T08:13:00;100767.49;;;6.55;65.21
70256;BME280;57669;52.624;-1.688;2022-11-02T08:15:25;100768.47;;;6.64;66.71
70256;BME280;57669;52.624;-1.688;2022-11-02T08:17:58;100766.07;;;7.09;64.45
70256;BME280;57669;52.624;-1.688;2022-11-02T08:20:16;100764.62;;;6.52;65.84
70256;BME280;57669;52.624;-1.688;2022-11-02T08:22:41;100755.36;;;6.92;64.87
70256;BME280;57669;52.624;-1.688;2022-11-02T08:25:07;100768.21;;;7.16;63.66
70256;BME280;57669;52.624;-1.688;2022-11-02T08:27:33;100757.49;;;6.74;65.66
70256;BME280;57669;52.624;-1.688;2022-11-02T08:29:59;100760.44;;;6.62;65.16
70256;BME280;57669;52.624;-1.688;2022-11-02T08:32:25;100759.54;;;6.96;64.89
70256;BME280;57669;52.624;-1.688;2022-11-02T08:34:50;100755.98;;;6.62;65.34
70256;BME280;57669;52.624;-1.688;2022-11-02T08:37:16;100754.28;;;6.59;65.58
70256;BME280;57669;52.624;-1.688;2022-11-02T08:39:41;100756.34;;;6.89;64.77
70256;BME280;57669;52.624;-1.688;2022-11-02T08:42:07;100759.77;;;6.59;67.43
70256;BME280;57669;52.624;-1.688;2022-11-02T08:44:32;100753.68;;;6.81;66.31
70256;BME280;57669;52.624;-1.688;2022-11-02T08:46:58;100753.25;;;6.77;65.16
70256;BME280;57669;52.624;-1.688;2022-11-02T08:49:24;100754.38;;;6.65;65.02
70256;BME280;57669;52.624;-1.688;2022-11-02T08:51:50;100751.19;;;6.74;65.46
70256;BME280;57669;52.624;-1.688;2022-11-02T08:54:15;100751.32;;;7.07;63.61
70256;BME280;57669;52.624;-1.688;2022-11-02T08:56:41;100756.38;;;7.16;63.65
70256;BME280;57669;52.624;-1.688;2022-11-02T08:59:07;100751.30;;;7.14;63.04
70256;BME280;57669;52.624;-1.688;2022-11-02T09:01:33;100747.78;;;7.04;62.09
70256;BME280;57669;52.624;-1.688;2022-11-02T09:03:58;100746.73;;;7.48;62.30
70256;BME280;57669;52.624;-1.688;2022-11-02T09:06:24;100748.40;;;7.69;61.93
70256;BME280;57669;52.624;-1.688;2022-11-02T09:08:50;100751.27;;;7.63;61.79
70256;BME280;57669;52.624;-1.688;2022-11-02T09:11:15;100747.33;;;7.58;61.75
70256;BME280;57669;52.624;-1.688;2022-11-02T09:13:41;100758.60;;;7.65;62.60
70256;BME280;57669;52.624;-1.688;2022-11-02T09:16:07;100751.25;;;7.35;63.34
70256;BME280;57669;52.624;-1.688;2022-11-02T09:18:32;100756.47;;;7.85;62.23
70256;BME280;57669;52.624;-1.688;2022-11-02T09:21:00;100751.08;;;7.36;62.28
70256;BME280;57669;52.624;-1.688;2022-11-02T09:23:23;100755.72;;;8.14;61.81
70256;BME280;57669;52.624;-1.688;2022-11-02T09:25:49;100747.23;;;7.34;63.84
70256;BME280;57669;52.624;-1.688;2022-11-02T09:28:15;100734.43;;;7.63;61.82
70256;BME280;57669;52.624;-1.688;2022-11-02T09:30:40;100724.30;;;7.07;63.88
70256;BME280;57669;52.624;-1.688;2022-11-02T09:33:07;100728.35;;;7.50;62.65
70256;BME280;57669;52.624;-1.688;2022-11-02T09:35:34;100719.87;;;7.87;62.73
70256;BME280;57669;52.624;-1.688;2022-11-02T09:37:58;100706.46;;;8.26;62.14
70256;BME280;57669;52.624;-1.688;2022-11-02T09:40:25;100690.07;;;8.38;61.45
70256;BME280;57669;52.624;-1.688;2022-11-02T09:43:00;100680.86;;;8.32;61.19
70256;BME280;57669;52.624;-1.688;2022-11-02T09:45:16;100662.72;;;8.47;60.51
70256;BME280;57669;52.624;-1.688;2022-11-02T09:47:46;100674.10;;;7.76;61.65
70256;BME280;57669;52.624;-1.688;2022-11-02T09:50:13;100672.47;;;7.68;62.20
70256;BME280;57669;52.624;-1.688;2022-11-02T09:52:35;100664.93;;;8.21;61.94
70256;BME280;57669;52.624;-1.688;2022-11-02T09:54:58;100653.07;;;8.18;61.34
70256;BME280;57669;52.624;-1.688;2022-11-02T09:57:27;100670.67;;;7.84;63.25
70256;BME280;57669;52.624;-1.688;2022-11-02T09:59:49;100656.28;;;7.30;63.85
70256;BME280;57669;52.624;-1.688;2022-11-02T10:02:22;100658.57;;;7.70;63.82
70256;BME280;57669;52.624;-1.688;2022-11-02T10:07:11;100629.43;;;8.04;62.06
70256;BME280;57669;52.624;-1.688;2022-11-02T10:09:36;100624.18;;;8.22;62.17
70256;BME280;57669;52.624;-1.688;2022-11-02T10:12:04;100618.25;;;8.02;62.10
70256;BME280;57669;52.624;-1.688;2022-11-02T10:14:28;100616.19;;;8.74;61.07
70256;BME280;57669;52.624;-1.688;2022-11-02T10:16:52;100602.90;;;8.43;61.02
70256;BME280;57669;52.624;-1.688;2022-11-02T10:19:17;100596.74;;;8.62;61.68
70256;BME280;57669;52.624;-1.688;2022-11-02T10:21:42;100599.70;;;8.61;61.73
70256;BME280;57669;52.624;-1.688;2022-11-02T10:24:16;100582.19;;;8.56;60.48
70256;BME280;57669;52.624;-1.688;2022-11-02T10:26:35;100580.09;;;9.62;58.69
70256;BME280;57669;52.624;-1.688;2022-11-02T10:28:59;100570.67;;;9.29;59.49
70256;BME280;57669;52.624;-1.688;2022-11-02T10:31:26;100574.24;;;8.58;60.64
70256;BME280;57669;52.624;-1.688;2022-11-02T10:33:48;100564.26;;;9.05;59.86
70256;BME280;57669;52.624;-1.688;2022-11-02T10:36:23;100558.52;;;8.93;60.03
70256;BME280;57669;52.624;-1.688;2022-11-02T10:38:46;100557.53;;;8.56;61.67
70256;BME280;57669;52.624;-1.688;2022-11-02T10:41:15;100559.94;;;9.24;58.85
70256;BME280;57669;52.624;-1.688;2022-11-02T10:43:44;100548.67;;;8.46;61.05
70256;BME280;57669;52.624;-1.688;2022-11-02T10:46:08;100544.70;;;8.82;60.46
70256;BME280;57669;52.624;-1.688;2022-11-02T10:48:30;100532.36;;;8.72;60.57
70256;BME280;57669;52.624;-1.688;2022-11-02T10:50:53;100524.22;;;9.07;59.68
70256;BME280;57669;52.624;-1.688;2022-11-02T10:53:15;100514.98;;;8.80;59.24
70256;BME280;57669;52.624;-1.688;2022-11-02T10:55:44;100515.33;;;8.93;59.76
70256;BME280;57669;52.624;-1.688;2022-11-02T10:58:05;100503.51;;;8.48;60.87
70256;BME280;57669;52.624;-1.688;2022-11-02T11:00:32;100498.78;;;8.58;61.04
70256;BME280;57669;52.624;-1.688;2022-11-02T11:03:02;100489.69;;;9.34;59.65
70256;BME280;57669;52.624;-1.688;2022-11-02T11:05:22;100483.73;;;9.05;59.98
70256;BME280;57669;52.624;-1.688;2022-11-02T11:07:48;100479.70;;;9.62;59.13
70256;BME280;57669;52.624;-1.688;2022-11-02T11:10:14;100481.92;;;9.24;59.17
70256;BME280;57669;52.624;-1.688;2022-11-02T11:12:39;100479.30;;;9.09;60.10
70256;BME280;57669;52.624;-1.688;2022-11-02T11:15:06;100484.18;;;8.77;60.73
70256;BME280;57669;52.624;-1.688;2022-11-02T11:17:33;100469.90;;;9.49;59.01
70256;BME280;57669;52.624;-1.688;2022-11-02T11:19:57;100457.17;;;9.56;59.53
70256;BME280;57669;52.624;-1.688;2022-11-02T11:22:25;100456.32;;;8.44;61.66
70256;BME280;57669;52.624;-1.688;2022-11-02T11:24:47;100449.84;;;9.41;59.63
70256;BME280;57669;52.624;-1.688;2022-11-02T11:27:16;100457.55;;;9.65;58.53
70256;BME280;57669;52.624;-1.688;2022-11-02T11:29:40;100459.78;;;9.78;58.32
70256;BME280;57669;52.624;-1.688;2022-11-02T11:32:04;100437.48;;;9.62;59.11
70256;BME280;57669;52.624;-1.688;2022-11-02T11:34:31;100427.46;;;9.54;59.09
70256;BME280;57669;52.624;-1.688;2022-11-02T11:37:03;100414.57;;;10.43;56.58
70256;BME280;57669;52.624;-1.688;2022-11-02T11:39:24;100413.94;;;10.15;57.04
70256;BME280;57669;52.624;-1.688;2022-11-02T11:41:46;100419.88;;;9.77;56.93
70256;BME280;57669;52.624;-1.688;2022-11-02T11:44:12;100407.78;;;9.90;58.00
70256;BME280;57669;52.624;-1.688;2022-11-02T11:46:39;100397.84;;;9.85;57.41
70256;BME280;57669;52.624;-1.688;2022-11-02T11:49:02;100390.94;;;9.72;57.51
70256;BME280;57669;52.624;-1.688;2022-11-02T11:51:29;100389.74;;;9.68;57.16
70256;BME280;57669;52.624;-1.688;2022-11-02T11:56:24;100390.13;;;9.98;56.88
70256;BME280;57669;52.624;-1.688;2022-11-02T11:58:50;100388.41;;;9.97;57.79
70256;BME280;57669;52.624;-1.688;2022-11-02T12:06:08;100374.98;;;9.59;57.47
70256;BME280;57669;52.624;-1.688;2022-11-02T12:08:36;100369.62;;;9.14;57.67
70256;BME280;57669;52.624;-1.688;2022-11-02T12:11:03;100370.23;;;9.98;56.91
70256;BME280;57669;52.624;-1.688;2022-11-02T12:13:32;100357.68;;;9.96;56.83
70256;BME280;57669;52.624;-1.688;2022-11-02T12:15:58;100349.61;;;10.50;56.00
70256;BME280;57669;52.624;-1.688;2022-11-02T12:18:21;100343.92;;;9.94;55.85
70256;BME280;57669;52.624;-1.688;2022-11-02T12:20:49;100343.61;;;10.53;54.52
70256;BME280;57669;52.624;-1.688;2022-11-02T12:23:06;100329.19;;;10.08;55.51
70256;BME280;57669;52.624;-1.688;2022-11-02T12:25:35;100319.04;;;10.50;55.61
70256;BME280;57669;52.624;-1.688;2022-11-02T12:27:58;100321.45;;;9.80;56.61
70256;BME280;57669;52.624;-1.688;2022-11-02T12:30:19;100305.50;;;10.87;54.68
70256;BME280;57669;52.624;-1.688;2022-11-02T12:35:22;100276.99;;;10.31;54.90
70256;BME280;57669;52.624;-1.688;2022-11-02T12:37:43;100263.13;;;10.09;55.66
70256;BME280;57669;52.624;-1.688;2022-11-02T12:40:11;100264.16;;;10.37;55.98
70256;BME280;57669;52.624;-1.688;2022-11-02T12:42:27;100257.29;;;9.99;56.21
70256;BME280;57669;52.624;-1.688;2022-11-02T12:47:28;100244.69;;;10.53;55.16
70256;BME280;57669;52.624;-1.688;2022-11-02T12:49:48;100239.51;;;10.57;55.65
70256;BME280;57669;52.624;-1.688;2022-11-02T12:52:17;100222.81;;;10.79;56.05
70256;BME280;57669;52.624;-1.688;2022-11-02T12:54:37;100229.53;;;11.22;54.79
70256;BME280;57669;52.624;-1.688;2022-11-02T12:56:59;100232.12;;;11.30;54.84
70256;BME280;57669;52.624;-1.688;2022-11-02T12:59:26;100203.88;;;10.61;56.18